createdAt,value
2022-12-22T00:01:55.508Z,2.70
2022-12-22T00:04:41.760Z,2.92
2022-12-22T00:07:27.498Z,2.50
2022-12-22T00:10:13.035Z,2.08
2022-12-22T00:12:59.636Z,2.28
2022-12-22T00:15:47.040Z,2.05
2022-12-22T00:18:35.727Z,1.80
2022-12-22T00:21:21.254Z,2.67
2022-12-22T00:24:06.627Z,2.38
2022-12-22T00:26:54.172Z,1.75
2022-12-22T00:29:40.669Z,1.65
2022-12-22T00:32:32.583Z,2.25
2022-12-22T00:35:18.656Z,1.85
2022-12-22T00:38:04.239Z,1.17
2022-12-22T00:40:49.623Z,0.95
2022-12-22T00:43:35.216Z,2.33
2022-12-22T00:46:22.341Z,2.35
2022-12-22T00:49:08.942Z,1.73
2022-12-22T00:51:54.402Z,1.55
2022-12-22T00:54:41.833Z,1.50
2022-12-22T00:57:34.921Z,1.60
2022-12-22T01:00:20.759Z,1.33
2022-12-22T01:03:06.242Z,1.90
2022-12-22T01:05:51.683Z,1.38
2022-12-22T01:12:41.925Z,1.42
2022-12-22T01:15:38.941Z,1.27
2022-12-22T01:18:24.992Z,1.27
2022-12-22T01:21:11.551Z,0.93
2022-12-22T01:23:58.545Z,1.67
2022-12-22T01:26:44.511Z,0.95
2022-12-22T01:29:30.019Z,1.52
2022-12-22T01:32:15.581Z,1.67
2022-12-22T01:35:00.953Z,1.10
2022-12-22T01:37:46.334Z,0.75
2022-12-22T01:40:41.867Z,1.42
2022-12-22T01:43:46.626Z,1.58
2022-12-22T01:46:47.040Z,1.27
2022-12-22T01:49:44.500Z,1.08
2022-12-22T01:52:33.599Z,1.00
2022-12-22T01:55:24.241Z,1.30
2022-12-22T01:58:09.769Z,1.15
2022-12-22T02:00:55.233Z,1.30
2022-12-22T02:03:41.762Z,1.40
2022-12-22T02:06:59.543Z,0.70
2022-12-22T02:10:10.719Z,0.95
2022-12-22T02:13:14.587Z,1.40
2022-12-22T02:16:18.480Z,1.65
2022-12-22T02:19:26.997Z,0.90
2022-12-22T02:22:40.349Z,1.20
2022-12-22T02:25:35.433Z,0.82
2022-12-22T02:28:22.991Z,1.55
2022-12-22T02:31:10.240Z,0.77
2022-12-22T02:33:55.860Z,1.08
2022-12-22T02:37:04.591Z,0.95
2022-12-22T02:40:03.564Z,1.53
2022-12-22T02:43:27.838Z,1.52
2022-12-22T02:46:32.486Z,1.52
2022-12-22T02:49:40.654Z,1.55
2022-12-22T02:52:42.938Z,1.58
2022-12-22T02:55:29.295Z,1.40
2022-12-22T02:58:18.198Z,1.20
2022-12-22T03:01:03.578Z,1.20
2022-12-22T03:03:49.026Z,1.35
2022-12-22T03:06:34.561Z,1.65
2022-12-22T03:09:20.073Z,1.10
2022-12-22T03:12:05.334Z,1.10
2022-12-22T03:14:50.822Z,0.77
2022-12-22T03:17:36.174Z,1.50
2022-12-22T03:20:21.720Z,1.55
2022-12-22T03:23:07.128Z,1.17
2022-12-22T03:25:55.049Z,1.13
2022-12-22T03:28:27.663Z,1.10
2022-12-22T03:31:00.779Z,0.93
2022-12-22T03:33:29.427Z,0.77
2022-12-22T03:35:57.286Z,1.30
2022-12-22T03:38:25.176Z,1.08
2022-12-22T03:40:52.648Z,0.80
2022-12-22T03:43:37.994Z,1.13
2022-12-22T03:46:24.017Z,0.95
2022-12-22T03:49:10.043Z,0.90
2022-12-22T03:52:03.358Z,0.80
2022-12-22T03:54:30.326Z,0.50
2022-12-22T03:56:58.090Z,0.73
2022-12-22T03:59:25.080Z,1.35
2022-12-22T04:01:54.389Z,0.60
2022-12-22T04:04:25.128Z,0.50
2022-12-22T04:06:53.001Z,0.68
2022-12-22T04:09:20.153Z,1.00
2022-12-22T04:12:05.609Z,0.93
2022-12-22T04:14:34.763Z,0.82
2022-12-22T04:17:06.708Z,0.70
2022-12-22T04:19:33.932Z,0.90
2022-12-22T04:22:01.644Z,1.10
2022-12-22T04:24:28.717Z,1.10
2022-12-22T04:26:55.742Z,0.15
2022-12-22T04:29:22.780Z,0.75
2022-12-22T04:31:49.881Z,0.77
2022-12-22T04:34:16.919Z,0.98
2022-12-22T04:36:44.012Z,0.73
2022-12-22T04:39:11.077Z,0.70
2022-12-22T04:41:38.031Z,0.88
2022-12-22T04:44:05.120Z,0.60
2022-12-22T04:46:33.517Z,0.93
2022-12-22T04:49:00.875Z,0.52
2022-12-22T04:51:28.696Z,0.82
2022-12-22T04:53:56.175Z,0.43
2022-12-22T04:56:23.238Z,0.70
2022-12-22T04:58:50.233Z,0.45
2022-12-22T05:01:19.323Z,0.70
2022-12-22T05:03:47.001Z,0.90
2022-12-22T05:06:14.847Z,0.90
2022-12-22T05:08:42.492Z,0.90
2022-12-22T05:11:09.720Z,0.60
2022-12-22T05:13:36.811Z,0.85
2022-12-22T05:16:09.753Z,1.02
2022-12-22T05:18:38.437Z,0.70
2022-12-22T05:21:14.608Z,0.70
2022-12-22T05:23:42.087Z,1.00
2022-12-22T05:26:09.747Z,0.88
2022-12-22T05:28:37.110Z,0.70
2022-12-22T05:31:17.654Z,0.70
2022-12-22T05:33:45.195Z,0.93
2022-12-22T05:36:12.251Z,0.80
2022-12-22T05:38:40.170Z,0.73
2022-12-22T05:41:08.252Z,0.75
2022-12-22T05:43:36.140Z,0.95
2022-12-22T05:46:11.450Z,0.65
2022-12-22T05:48:40.195Z,1.27
2022-12-22T05:51:10.862Z,1.00
2022-12-22T05:53:38.706Z,0.90
2022-12-22T05:56:06.772Z,0.52
2022-12-22T05:58:35.085Z,0.60
2022-12-22T06:01:02.161Z,1.30
2022-12-22T06:03:30.488Z,0.68
2022-12-22T06:05:58.714Z,0.88
2022-12-22T06:08:26.764Z,1.20
2022-12-22T06:10:58.430Z,1.50
2022-12-22T06:13:26.341Z,0.90
2022-12-22T06:15:53.698Z,1.38
2022-12-22T06:18:20.768Z,0.98
2022-12-22T06:20:48.176Z,1.67
2022-12-22T06:27:40.731Z,1.17
2022-12-22T06:30:08.410Z,2.20
2022-12-22T06:32:39.613Z,3.53
2022-12-22T06:35:08.360Z,2.80
2022-12-22T06:37:35.474Z,2.33
2022-12-22T06:40:03.063Z,1.90
2022-12-22T06:42:48.503Z,1.35
2022-12-22T06:45:15.707Z,1.27
2022-12-22T06:47:42.687Z,1.55
2022-12-22T06:50:10.057Z,1.65
2022-12-22T06:52:37.096Z,1.33
2022-12-22T06:55:04.459Z,1.33
2022-12-22T06:57:31.604Z,0.90
2022-12-22T06:59:58.634Z,0.93
2022-12-22T07:02:25.979Z,1.67
2022-12-22T07:04:53.178Z,0.50
2022-12-22T07:07:20.187Z,1.60
2022-12-22T07:10:39.483Z,1.27
2022-12-22T07:13:19.460Z,1.77
2022-12-22T07:15:52.053Z,0.93
2022-12-22T07:18:24.793Z,1.35
2022-12-22T07:20:52.036Z,2.15
2022-12-22T07:23:19.004Z,1.70
2022-12-22T07:25:45.924Z,1.33
2022-12-22T07:28:18.399Z,1.75
2022-12-22T07:30:47.657Z,0.85
2022-12-22T07:33:14.537Z,1.25
2022-12-22T07:35:41.519Z,0.93
2022-12-22T07:38:08.510Z,1.10
2022-12-22T07:40:41.198Z,0.95
2022-12-22T07:43:08.665Z,1.85
2022-12-22T07:45:36.594Z,2.03
2022-12-22T07:48:27.462Z,2.05
2022-12-22T07:51:00.189Z,1.92
2022-12-22T07:53:27.375Z,1.42
2022-12-22T07:55:54.428Z,2.08
2022-12-22T07:58:21.384Z,0.95
2022-12-22T08:00:48.382Z,1.80
2022-12-22T08:03:15.468Z,2.30
2022-12-22T08:05:42.632Z,1.48
2022-12-22T08:08:09.579Z,1.55
2022-12-22T08:10:36.663Z,2.00
2022-12-22T08:13:03.713Z,1.38
2022-12-22T08:15:30.755Z,1.30
2022-12-22T08:17:57.728Z,1.35
2022-12-22T08:24:42.983Z,1.48
2022-12-22T08:27:19.564Z,1.35
2022-12-22T08:29:57.337Z,0.93
2022-12-22T08:32:24.555Z,1.65
2022-12-22T08:34:52.941Z,1.67
2022-12-22T08:37:23.972Z,1.80
2022-12-22T08:39:57.028Z,1.05
2022-12-22T08:42:25.533Z,1.60
2022-12-22T08:44:53.583Z,1.85
2022-12-22T08:47:21.625Z,0.85
2022-12-22T08:49:50.669Z,1.70
2022-12-22T08:52:19.497Z,1.52
2022-12-22T08:55:27.747Z,1.67
2022-12-22T08:57:56.391Z,1.50
2022-12-22T09:00:24.405Z,1.50
2022-12-22T09:02:51.777Z,1.42
2022-12-22T09:05:19.584Z,1.30
2022-12-22T09:07:48.530Z,1.08
2022-12-22T09:10:16.016Z,1.13
2022-12-22T09:12:43.077Z,1.33
2022-12-22T09:15:10.483Z,0.90
2022-12-22T09:17:37.933Z,1.40
2022-12-22T09:20:06.266Z,1.27
2022-12-22T09:22:35.775Z,1.00
2022-12-22T09:25:02.780Z,0.85
2022-12-22T09:27:30.813Z,0.98
2022-12-22T09:29:58.198Z,1.50
2022-12-22T09:32:25.234Z,1.73
2022-12-22T09:34:52.798Z,1.13
2022-12-22T09:37:19.762Z,1.42
2022-12-22T09:39:47.255Z,1.17
2022-12-22T09:42:18.632Z,1.38
2022-12-22T09:44:50.699Z,1.35
2022-12-22T09:47:33.362Z,1.55
2022-12-22T09:50:00.396Z,1.67
2022-12-22T09:52:35.423Z,2.20
2022-12-22T09:55:03.472Z,1.63
2022-12-22T09:57:32.898Z,1.38
2022-12-22T10:00:14.229Z,1.45
2022-12-22T10:03:23.970Z,1.30
2022-12-22T10:08:30.061Z,1.60
2022-12-22T10:10:57.480Z,2.50
2022-12-22T10:13:24.580Z,0.85
2022-12-22T10:15:53.257Z,1.85
2022-12-22T10:18:29.123Z,1.35
2022-12-22T10:21:10.016Z,1.42
2022-12-22T10:23:44.105Z,1.40
2022-12-22T10:26:31.939Z,1.35
2022-12-22T10:29:10.574Z,1.95
2022-12-22T10:31:59.197Z,1.42
2022-12-22T10:34:26.656Z,3.00
2022-12-22T10:36:59.223Z,1.70
2022-12-22T10:39:29.139Z,1.40
2022-12-22T10:42:08.179Z,0.95
2022-12-22T10:44:37.650Z,1.20
2022-12-22T10:47:26.743Z,1.75
2022-12-22T10:52:31.945Z,1.73
2022-12-22T10:55:17.902Z,1.70
2022-12-22T10:57:44.944Z,1.23
2022-12-22T11:00:38.821Z,1.10
2022-12-22T11:03:08.121Z,1.10
2022-12-22T11:05:35.341Z,1.48
2022-12-22T11:08:21.904Z,1.10
2022-12-22T11:10:59.443Z,1.52
2022-12-22T11:14:06.938Z,1.33
2022-12-22T11:16:45.873Z,3.53
2022-12-22T11:19:23.058Z,1.67
2022-12-22T11:22:03.364Z,0.70
2022-12-22T11:24:59.237Z,1.75
2022-12-22T11:28:04.330Z,1.30
2022-12-22T11:30:43.574Z,1.27
2022-12-22T11:33:42.981Z,1.58
2022-12-22T11:36:20.866Z,1.50
2022-12-22T11:39:12.450Z,1.00
2022-12-22T11:41:52.586Z,1.50
2022-12-22T11:44:45.539Z,1.13
2022-12-22T11:47:50.145Z,1.17
2022-12-22T11:50:59.083Z,1.45
2022-12-22T11:53:44.569Z,1.85
2022-12-22T11:56:29.298Z,0.98
2022-12-22T11:59:08.270Z,1.30
2022-12-22T12:01:47.413Z,1.08
2022-12-22T12:04:14.746Z,1.15
2022-12-22T12:06:59.768Z,1.25
2022-12-22T12:09:35.009Z,1.27
2022-12-22T12:12:17.484Z,1.23
2022-12-22T12:14:53.910Z,1.52
2022-12-22T12:17:50.929Z,1.02
2022-12-22T12:20:35.989Z,1.23
2022-12-22T12:23:32.334Z,1.75
2022-12-22T12:26:27.750Z,1.02
2022-12-22T12:29:07.233Z,1.42
2022-12-22T12:31:41.143Z,1.58
2022-12-22T12:34:14.697Z,1.17
2022-12-22T12:37:14.133Z,1.27
2022-12-22T12:40:16.268Z,1.40
2022-12-22T12:42:46.971Z,0.85
2022-12-22T12:45:33.198Z,0.70
2022-12-22T12:48:24.863Z,0.90
2022-12-22T12:50:56.871Z,1.63
2022-12-22T12:53:25.643Z,1.40
2022-12-22T12:55:54.302Z,0.93
2022-12-22T12:58:37.815Z,1.13
2022-12-22T13:01:12.277Z,0.60
2022-12-22T13:06:51.123Z,1.27
2022-12-22T13:12:40.950Z,1.30
2022-12-22T13:15:41.579Z,1.13
2022-12-22T13:18:24.024Z,1.00
2022-12-22T13:21:52.477Z,1.20
2022-12-22T13:24:25.846Z,0.88
2022-12-22T13:26:55.823Z,2.05
2022-12-22T13:29:23.004Z,1.60
2022-12-22T13:32:19.190Z,0.98
2022-12-22T13:35:29.059Z,1.75
2022-12-22T13:37:46.734Z,0.80
2022-12-22T13:40:31.141Z,1.38
2022-12-22T13:43:03.282Z,2.30
2022-12-22T13:45:52.769Z,1.85
2022-12-22T13:48:30.604Z,1.30
2022-12-22T13:51:06.349Z,1.23
2022-12-22T13:56:49.699Z,1.20
2022-12-22T13:59:36.403Z,1.05
2022-12-22T14:02:09.500Z,2.00
2022-12-22T14:04:38.247Z,1.38
2022-12-22T14:07:19.951Z,1.38
2022-12-22T14:09:49.266Z,1.30
2022-12-22T14:12:23.115Z,1.70
2022-12-22T14:14:52.775Z,1.20
2022-12-22T14:17:31.913Z,1.10
2022-12-22T14:20:01.536Z,0.98
2022-12-22T14:25:29.294Z,0.90
2022-12-22T14:27:57.482Z,0.88
2022-12-22T14:30:31.016Z,0.90
2022-12-22T14:33:23.462Z,1.30
2022-12-22T14:35:50.819Z,1.20
2022-12-22T14:38:26.533Z,1.20
2022-12-22T14:40:57.712Z,1.58
2022-12-22T14:43:31.538Z,1.77
2022-12-22T14:46:08.966Z,1.65
2022-12-22T14:48:44.881Z,1.20
2022-12-22T14:51:20.051Z,1.35
2022-12-22T14:53:57.232Z,1.73
2022-12-22T14:56:26.706Z,1.52
2022-12-22T14:59:09.501Z,1.70
2022-12-22T15:01:36.719Z,4.05
2022-12-22T15:04:19.142Z,1.65
2022-12-22T15:06:49.605Z,3.33
2022-12-22T15:09:16.557Z,1.63
2022-12-22T15:12:20.981Z,1.92
2022-12-22T15:14:49.133Z,1.80
2022-12-22T15:17:25.978Z,1.80
2022-12-22T15:19:57.957Z,2.15
2022-12-22T15:22:25.575Z,1.60
2022-12-22T15:24:52.769Z,2.10
2022-12-22T15:27:20.231Z,1.95
2022-12-22T15:29:48.036Z,2.00
2022-12-22T15:32:15.157Z,2.35
2022-12-22T15:34:42.533Z,1.85
2022-12-22T15:37:12.644Z,2.30
2022-12-22T15:39:40.558Z,2.35
2022-12-22T15:42:07.636Z,1.90
2022-12-22T15:44:38.698Z,1.77
2022-12-22T15:47:09.475Z,1.10
2022-12-22T15:49:36.629Z,2.35
2022-12-22T15:52:05.351Z,2.10
2022-12-22T15:54:35.596Z,2.10
2022-12-22T15:57:11.747Z,2.03
2022-12-22T15:59:40.376Z,2.08
2022-12-22T16:02:12.827Z,2.40
2022-12-22T16:04:40.056Z,1.77
2022-12-22T16:07:07.176Z,2.45
2022-12-22T16:09:42.870Z,1.73
2022-12-22T16:12:18.587Z,2.03
2022-12-22T16:15:13.567Z,2.78
2022-12-22T16:17:40.696Z,2.03
2022-12-22T16:20:09.213Z,2.35
2022-12-22T16:22:37.916Z,2.50
2022-12-22T16:25:08.179Z,2.75
2022-12-22T16:27:35.988Z,2.75
2022-12-22T16:30:03.765Z,3.50
2022-12-22T16:32:32.221Z,2.55
2022-12-22T16:35:11.530Z,2.90
2022-12-22T16:37:39.303Z,2.67
2022-12-22T16:40:08.088Z,2.25
2022-12-22T16:45:27.082Z,2.75
2022-12-22T16:47:55.274Z,3.03
2022-12-22T16:50:27.736Z,2.40
2022-12-22T16:52:54.749Z,3.08
2022-12-22T16:55:22.345Z,2.58
2022-12-22T16:57:49.410Z,2.85
2022-12-22T17:00:18.279Z,3.00
2022-12-22T17:02:50.490Z,2.53
2022-12-22T17:05:43.726Z,5.00
2022-12-22T17:08:34.594Z,4.57
2022-12-22T17:11:10.441Z,10.82
2022-12-22T17:13:38.363Z,5.88
2022-12-22T17:16:05.747Z,4.22
2022-12-22T17:18:33.426Z,2.88
2022-12-22T17:21:05.018Z,2.75
2022-12-22T17:23:39.091Z,2.28
2022-12-22T17:26:13.230Z,2.25
2022-12-22T17:28:40.678Z,2.33
2022-12-22T17:31:07.734Z,2.08
2022-12-22T17:33:34.772Z,2.28
2022-12-22T17:36:02.485Z,2.50
2022-12-22T17:38:30.031Z,2.58
2022-12-22T17:40:57.706Z,2.88
2022-12-22T17:43:24.866Z,3.45
2022-12-22T17:45:52.441Z,2.38
2022-12-22T17:48:19.388Z,2.38
2022-12-22T17:50:50.357Z,2.28
2022-12-22T17:53:21.300Z,2.75
2022-12-22T17:58:35.932Z,2.28
2022-12-22T18:01:02.878Z,2.75
2022-12-22T18:03:29.890Z,3.00
2022-12-22T18:05:56.943Z,2.72
2022-12-22T18:08:23.954Z,2.90
2022-12-22T18:10:51.018Z,2.95
2022-12-22T18:13:22.789Z,2.53
2022-12-22T18:15:49.878Z,2.00
2022-12-22T18:18:18.308Z,3.30
2022-12-22T18:21:06.385Z,3.20
2022-12-22T18:23:35.980Z,3.83
2022-12-22T18:26:05.068Z,3.37
2022-12-22T18:28:32.017Z,3.75
2022-12-22T18:30:59.192Z,2.83
2022-12-22T18:33:26.296Z,3.00
2022-12-22T18:35:59.377Z,3.45
2022-12-22T18:38:32.634Z,3.83
2022-12-22T18:41:00.262Z,4.53
2022-12-22T18:48:44.572Z,3.42
2022-12-22T18:51:23.442Z,3.15
2022-12-22T18:53:52.832Z,2.35
2022-12-22T18:56:20.602Z,2.92
2022-12-22T18:58:47.888Z,4.75
2022-12-22T19:01:22.021Z,4.65
2022-12-22T19:03:51.515Z,4.82
2022-12-22T19:06:22.041Z,2.85
2022-12-22T19:08:50.920Z,4.18
2022-12-22T19:11:23.623Z,4.00
2022-12-22T19:13:52.565Z,3.45
2022-12-22T19:16:26.180Z,3.10
2022-12-22T19:18:53.453Z,4.57
2022-12-22T19:21:20.869Z,3.30
2022-12-22T19:23:48.949Z,3.95
2022-12-22T19:26:23.550Z,3.75
2022-12-22T19:28:58.559Z,3.25
2022-12-22T19:31:29.217Z,1.58
2022-12-22T19:33:59.276Z,3.67
2022-12-22T19:37:33.565Z,3.03
2022-12-22T19:40:00.772Z,2.67
2022-12-22T19:42:27.949Z,2.78
2022-12-22T19:44:55.871Z,2.67
2022-12-22T19:47:24.500Z,4.15
2022-12-22T19:49:51.455Z,4.85
2022-12-22T19:52:19.356Z,3.10
2022-12-22T19:54:46.628Z,2.72
2022-12-22T19:57:20.565Z,3.33
2022-12-22T19:59:49.918Z,3.15
2022-12-22T20:02:30.366Z,3.55
2022-12-22T20:04:59.111Z,4.00
2022-12-22T20:07:28.205Z,2.83
2022-12-22T20:09:56.155Z,3.70
2022-12-22T20:12:38.477Z,3.40
2022-12-22T20:15:18.701Z,3.45
2022-12-22T20:17:46.601Z,2.58
2022-12-22T20:20:27.065Z,2.47
2022-12-22T20:23:03.308Z,2.97
2022-12-22T20:25:37.568Z,3.35
2022-12-22T20:28:15.121Z,4.43
2022-12-22T20:30:43.895Z,4.55
2022-12-22T20:33:12.625Z,3.95
2022-12-22T20:35:42.062Z,4.40
2022-12-22T20:38:18.868Z,3.55
2022-12-22T20:40:47.365Z,2.80
2022-12-22T20:43:20.698Z,3.78
2022-12-22T20:45:50.224Z,4.30
2022-12-22T20:48:29.810Z,4.68
2022-12-22T20:50:57.060Z,5.13
2022-12-22T20:53:24.251Z,4.65
2022-12-22T20:55:51.307Z,5.15
2022-12-22T20:58:23.807Z,5.35
2022-12-22T21:00:54.684Z,4.50
2022-12-22T21:03:21.833Z,3.88
2022-12-22T21:05:49.461Z,3.67
2022-12-22T21:08:23.025Z,4.78
2022-12-22T21:10:52.268Z,3.50
2022-12-22T21:13:19.850Z,3.30
2022-12-22T21:15:50.192Z,2.28
2022-12-22T21:18:20.287Z,2.55
2022-12-22T21:20:48.898Z,3.08
2022-12-22T21:23:19.093Z,4.15
2022-12-22T21:25:51.769Z,3.88
2022-12-22T21:28:38.601Z,2.97
2022-12-22T21:31:05.962Z,3.05
2022-12-22T21:33:33.014Z,3.10
2022-12-22T21:36:02.910Z,4.38
2022-12-22T21:38:32.772Z,2.42
2022-12-22T21:41:00.155Z,3.70
2022-12-22T21:43:27.197Z,2.15
2022-12-22T21:45:54.323Z,4.10
2022-12-22T21:48:21.701Z,2.45
2022-12-22T21:50:50.419Z,2.50
2022-12-22T21:53:22.509Z,3.17
2022-12-22T21:55:50.131Z,4.55
2022-12-22T21:58:17.730Z,2.78
2022-12-22T22:00:48.532Z,4.65
2022-12-22T22:03:16.033Z,3.40
2022-12-22T22:05:43.220Z,3.53
2022-12-22T22:08:11.909Z,3.45
2022-12-22T22:10:43.543Z,3.00
2022-12-22T22:13:16.970Z,3.00
2022-12-22T22:15:44.069Z,3.80
2022-12-22T22:18:19.903Z,2.10
2022-12-22T22:20:48.084Z,4.18
2022-12-22T22:23:15.364Z,3.20
2022-12-22T22:25:42.411Z,2.90
2022-12-22T22:28:11.536Z,2.95
2022-12-22T22:30:40.644Z,3.47
2022-12-22T22:33:07.591Z,2.80
2022-12-22T22:35:34.628Z,2.60
2022-12-22T22:38:01.634Z,2.35
2022-12-22T22:40:29.048Z,2.47
2022-12-22T22:42:57.253Z,1.65
2022-12-22T22:46:15.169Z,2.65
2022-12-22T22:48:42.719Z,2.05
2022-12-22T22:51:10.767Z,2.83
2022-12-22T22:53:37.733Z,2.20
2022-12-22T22:56:05.108Z,2.65
2022-12-22T22:58:32.096Z,1.88
2022-12-22T23:01:07.292Z,2.53
2022-12-22T23:07:53.466Z,2.47
2022-12-22T23:10:20.545Z,2.30
2022-12-22T23:12:47.519Z,2.25
2022-12-22T23:15:14.615Z,2.13
2022-12-22T23:17:41.673Z,2.22
2022-12-22T23:20:09.149Z,2.58
2022-12-22T23:22:36.125Z,2.92
2022-12-22T23:25:03.290Z,2.33
2022-12-22T23:27:30.755Z,1.85
2022-12-22T23:29:57.791Z,2.58
2022-12-22T23:32:24.973Z,2.75
2022-12-22T23:34:51.909Z,2.60
2022-12-22T23:37:19.876Z,2.72
2022-12-22T23:39:47.139Z,2.30
2022-12-22T23:42:14.286Z,2.75
2022-12-22T23:44:42.051Z,1.50
2022-12-22T23:47:09.466Z,2.85
2022-12-22T23:53:57.870Z,2.90
2022-12-22T23:56:25.054Z,2.72
2022-12-22T23:58:54.841Z,2.65
